Rechercher aéroport 
image banner adimage banner ad
image banner ad

SVAW - Aviatun

Situé à Falcon, Venezuela

ICAO - SVAW, IATA -

Données fournies par Airmate  

Information générale

Coordonnées: N11°41'56" W70°13'41"
Élévation : 220 feet MSL.
 
Voir autres Aéroports à Apure

Données opérationnelles

Accessible au public
Heure actuelle UTC:
Heure actuelle locale:
TAF: TAF SVJC 051000Z 0512/0612 09003KT 9999 SCT016 TX34/0518Z TN24/0508Z BECMG 0512/0516 12003KT 9999 BKN016
Voir NOTAMs / SUP AIP / TFR affectant cet aéroport [VIEW]
Fréquences de communication: [VIEW]

Pistes:

Coordonnées de l'aéroport

Adresse: Falcon Venezuela

Vue satellite de SVAW